sensor_id;sensor_type;location;lat;lon;timestamp;P1;durP1;ratioP1;P2;durP2;ratioP2
4810;SDS011;2419;51.276;6.472;2023-08-31T00:02:25;5.30;;;3.17;;
4810;SDS011;2419;51.276;6.472;2023-08-31T00:04:54;6.47;;;2.50;;
4810;SDS011;2419;51.276;6.472;2023-08-31T00:07:22;2.63;;;2.03;;
4810;SDS011;2419;51.276;6.472;2023-08-31T00:09:51;4.50;;;2.70;;
4810;SDS011;2419;51.276;6.472;2023-08-31T00:12:20;9.73;;;2.87;;
4810;SDS011;2419;51.276;6.472;2023-08-31T00:14:49;6.30;;;2.73;;
4810;SDS011;2419;51.276;6.472;2023-08-31T00:17:17;3.53;;;2.47;;
4810;SDS011;2419;51.276;6.472;2023-08-31T00:19:45;4.67;;;2.67;;
4810;SDS011;2419;51.276;6.472;2023-08-31T00:22:13;5.03;;;2.90;;
4810;SDS011;2419;51.276;6.472;2023-08-31T00:24:41;3.83;;;2.70;;
4810;SDS011;2419;51.276;6.472;2023-08-31T00:27:10;6.80;;;3.20;;
4810;SDS011;2419;51.276;6.472;2023-08-31T00:29:42;8.77;;;2.90;;
4810;SDS011;2419;51.276;6.472;2023-08-31T00:32:15;3.87;;;2.83;;
4810;SDS011;2419;51.276;6.472;2023-08-31T00:34:44;5.40;;;2.73;;
4810;SDS011;2419;51.276;6.472;2023-08-31T00:37:12;3.20;;;2.73;;
4810;SDS011;2419;51.276;6.472;2023-08-31T00:39:40;4.63;;;2.93;;
4810;SDS011;2419;51.276;6.472;2023-08-31T00:42:11;5.50;;;2.70;;
4810;SDS011;2419;51.276;6.472;2023-08-31T00:44:40;6.70;;;2.07;;
4810;SDS011;2419;51.276;6.472;2023-08-31T00:47:08;10.07;;;3.93;;
4810;SDS011;2419;51.276;6.472;2023-08-31T00:49:36;3.30;;;2.10;;
4810;SDS011;2419;51.276;6.472;2023-08-31T00:52:05;5.80;;;2.67;;
4810;SDS011;2419;51.276;6.472;2023-08-31T00:54:34;3.43;;;2.67;;
4810;SDS011;2419;51.276;6.472;2023-08-31T00:57:03;3.70;;;2.97;;
4810;SDS011;2419;51.276;6.472;2023-08-31T00:59:34;4.20;;;2.77;;
4810;SDS011;2419;51.276;6.472;2023-08-31T01:02:04;5.93;;;3.07;;
4810;SDS011;2419;51.276;6.472;2023-08-31T01:04:38;3.03;;;2.50;;
4810;SDS011;2419;51.276;6.472;2023-08-31T01:07:18;8.47;;;2.97;;
4810;SDS011;2419;51.276;6.472;2023-08-31T01:09:54;4.10;;;2.67;;
4810;SDS011;2419;51.276;6.472;2023-08-31T01:12:34;4.60;;;2.90;;
4810;SDS011;2419;51.276;6.472;2023-08-31T01:15:10;10.13;;;3.30;;
4810;SDS011;2419;51.276;6.472;2023-08-31T01:17:43;9.83;;;3.07;;
4810;SDS011;2419;51.276;6.472;2023-08-31T01:20:15;7.40;;;3.43;;
4810;SDS011;2419;51.276;6.472;2023-08-31T01:22:48;4.47;;;3.30;;
4810;SDS011;2419;51.276;6.472;2023-08-31T01:25:31;5.83;;;2.60;;
4810;SDS011;2419;51.276;6.472;2023-08-31T01:27:59;5.13;;;3.80;;
4810;SDS011;2419;51.276;6.472;2023-08-31T01:30:29;5.60;;;3.17;;
4810;SDS011;2419;51.276;6.472;2023-08-31T01:32:58;6.57;;;2.53;;
4810;SDS011;2419;51.276;6.472;2023-08-31T01:35:27;4.40;;;2.70;;
4810;SDS011;2419;51.276;6.472;2023-08-31T01:37:58;5.43;;;2.47;;
4810;SDS011;2419;51.276;6.472;2023-08-31T01:40:31;8.13;;;2.60;;
4810;SDS011;2419;51.276;6.472;2023-08-31T01:43:04;5.33;;;2.70;;
4810;SDS011;2419;51.276;6.472;2023-08-31T01:45:34;3.40;;;2.57;;
4810;SDS011;2419;51.276;6.472;2023-08-31T01:48:04;5.70;;;2.63;;
4810;SDS011;2419;51.276;6.472;2023-08-31T01:50:33;8.60;;;3.40;;
4810;SDS011;2419;51.276;6.472;2023-08-31T01:53:01;4.30;;;2.07;;
4810;SDS011;2419;51.276;6.472;2023-08-31T01:55:32;2.30;;;1.93;;
4810;SDS011;2419;51.276;6.472;2023-08-31T01:58:00;3.37;;;2.37;;
4810;SDS011;2419;51.276;6.472;2023-08-31T02:00:29;4.93;;;2.07;;
4810;SDS011;2419;51.276;6.472;2023-08-31T02:07:26;5.20;;;2.10;;
4810;SDS011;2419;51.276;6.472;2023-08-31T02:09:54;3.53;;;2.07;;
4810;SDS011;2419;51.276;6.472;2023-08-31T02:12:24;3.40;;;2.20;;
4810;SDS011;2419;51.276;6.472;2023-08-31T02:14:52;5.30;;;2.33;;
4810;SDS011;2419;51.276;6.472;2023-08-31T02:17:20;4.53;;;2.20;;
4810;SDS011;2419;51.276;6.472;2023-08-31T02:19:48;2.90;;;2.27;;
4810;SDS011;2419;51.276;6.472;2023-08-31T02:22:16;4.23;;;2.80;;
4810;SDS011;2419;51.276;6.472;2023-08-31T02:24:46;3.63;;;2.50;;
4810;SDS011;2419;51.276;6.472;2023-08-31T02:27:14;3.87;;;2.17;;
4810;SDS011;2419;51.276;6.472;2023-08-31T02:29:44;2.33;;;2.10;;
4810;SDS011;2419;51.276;6.472;2023-08-31T02:32:12;2.87;;;1.90;;
4810;SDS011;2419;51.276;6.472;2023-08-31T02:34:40;4.70;;;2.50;;
4810;SDS011;2419;51.276;6.472;2023-08-31T02:37:08;2.60;;;2.37;;
4810;SDS011;2419;51.276;6.472;2023-08-31T02:39:36;2.50;;;2.30;;
4810;SDS011;2419;51.276;6.472;2023-08-31T02:42:04;4.03;;;2.03;;
4810;SDS011;2419;51.276;6.472;2023-08-31T02:44:34;4.37;;;2.73;;
4810;SDS011;2419;51.276;6.472;2023-08-31T02:47:03;4.63;;;2.50;;
4810;SDS011;2419;51.276;6.472;2023-08-31T02:49:31;2.80;;;2.13;;
4810;SDS011;2419;51.276;6.472;2023-08-31T02:52:00;4.30;;;2.70;;
4810;SDS011;2419;51.276;6.472;2023-08-31T02:54:28;6.57;;;2.07;;
4810;SDS011;2419;51.276;6.472;2023-08-31T02:56:56;3.90;;;2.60;;
4810;SDS011;2419;51.276;6.472;2023-08-31T02:59:24;2.60;;;2.17;;
4810;SDS011;2419;51.276;6.472;2023-08-31T03:01:52;3.37;;;2.27;;
4810;SDS011;2419;51.276;6.472;2023-08-31T03:04:22;3.30;;;2.33;;
4810;SDS011;2419;51.276;6.472;2023-08-31T03:06:50;4.23;;;1.90;;
4810;SDS011;2419;51.276;6.472;2023-08-31T03:09:18;2.70;;;2.07;;
4810;SDS011;2419;51.276;6.472;2023-08-31T03:11:46;3.80;;;2.37;;
4810;SDS011;2419;51.276;6.472;2023-08-31T03:14:14;4.73;;;2.53;;
4810;SDS011;2419;51.276;6.472;2023-08-31T03:16:42;3.10;;;2.03;;
4810;SDS011;2419;51.276;6.472;2023-08-31T03:19:11;8.43;;;2.60;;
4810;SDS011;2419;51.276;6.472;2023-08-31T03:21:40;2.07;;;1.87;;
4810;SDS011;2419;51.276;6.472;2023-08-31T03:24:08;4.80;;;2.37;;
4810;SDS011;2419;51.276;6.472;2023-08-31T03:26:38;4.30;;;2.57;;
4810;SDS011;2419;51.276;6.472;2023-08-31T03:29:06;3.93;;;2.30;;
4810;SDS011;2419;51.276;6.472;2023-08-31T03:31:35;4.00;;;2.20;;
4810;SDS011;2419;51.276;6.472;2023-08-31T03:34:03;5.00;;;2.33;;
4810;SDS011;2419;51.276;6.472;2023-08-31T03:36:31;5.17;;;2.90;;
4810;SDS011;2419;51.276;6.472;2023-08-31T03:39:02;3.53;;;2.50;;
4810;SDS011;2419;51.276;6.472;2023-08-31T03:41:31;5.00;;;2.43;;
4810;SDS011;2419;51.276;6.472;2023-08-31T03:43:59;4.10;;;3.33;;
4810;SDS011;2419;51.276;6.472;2023-08-31T03:46:27;3.33;;;2.40;;
4810;SDS011;2419;51.276;6.472;2023-08-31T03:48:55;4.50;;;2.80;;
4810;SDS011;2419;51.276;6.472;2023-08-31T03:55:50;5.87;;;3.10;;
4810;SDS011;2419;51.276;6.472;2023-08-31T03:58:18;5.40;;;2.80;;
4810;SDS011;2419;51.276;6.472;2023-08-31T04:00:48;3.00;;;2.50;;
4810;SDS011;2419;51.276;6.472;2023-08-31T04:03:17;3.23;;;2.93;;
4810;SDS011;2419;51.276;6.472;2023-08-31T04:05:46;4.30;;;2.90;;
4810;SDS011;2419;51.276;6.472;2023-08-31T04:08:15;4.90;;;2.80;;
4810;SDS011;2419;51.276;6.472;2023-08-31T04:10:43;4.00;;;3.13;;
4810;SDS011;2419;51.276;6.472;2023-08-31T04:13:14;4.23;;;2.63;;
4810;SDS011;2419;51.276;6.472;2023-08-31T04:15:42;3.83;;;2.20;;
4810;SDS011;2419;51.276;6.472;2023-08-31T04:18:10;6.10;;;2.90;;
4810;SDS011;2419;51.276;6.472;2023-08-31T04:20:46;4.40;;;2.87;;
4810;SDS011;2419;51.276;6.472;2023-08-31T04:23:16;3.83;;;3.40;;
4810;SDS011;2419;51.276;6.472;2023-08-31T04:25:44;3.10;;;2.77;;
4810;SDS011;2419;51.276;6.472;2023-08-31T04:28:13;4.63;;;3.10;;
4810;SDS011;2419;51.276;6.472;2023-08-31T04:30:41;3.80;;;3.00;;
4810;SDS011;2419;51.276;6.472;2023-08-31T04:33:11;3.23;;;2.67;;
4810;SDS011;2419;51.276;6.472;2023-08-31T04:35:39;10.63;;;3.43;;
4810;SDS011;2419;51.276;6.472;2023-08-31T04:38:07;3.10;;;2.80;;
4810;SDS011;2419;51.276;6.472;2023-08-31T04:40:36;3.37;;;3.07;;
4810;SDS011;2419;51.276;6.472;2023-08-31T04:43:04;3.63;;;2.87;;
4810;SDS011;2419;51.276;6.472;2023-08-31T04:45:33;6.03;;;3.37;;
4810;SDS011;2419;51.276;6.472;2023-08-31T04:48:01;6.30;;;3.90;;
4810;SDS011;2419;51.276;6.472;2023-08-31T04:54:58;7.13;;;4.00;;
4810;SDS011;2419;51.276;6.472;2023-08-31T04:57:27;7.30;;;3.70;;
4810;SDS011;2419;51.276;6.472;2023-08-31T04:59:55;8.47;;;4.37;;
4810;SDS011;2419;51.276;6.472;2023-08-31T05:02:25;4.53;;;3.60;;
4810;SDS011;2419;51.276;6.472;2023-08-31T05:04:53;5.03;;;3.60;;
4810;SDS011;2419;51.276;6.472;2023-08-31T05:07:21;5.50;;;3.70;;
4810;SDS011;2419;51.276;6.472;2023-08-31T05:09:49;6.53;;;3.70;;
4810;SDS011;2419;51.276;6.472;2023-08-31T05:12:17;5.97;;;3.93;;
4810;SDS011;2419;51.276;6.472;2023-08-31T05:14:45;7.73;;;3.80;;
4810;SDS011;2419;51.276;6.472;2023-08-31T05:17:13;9.33;;;4.50;;
4810;SDS011;2419;51.276;6.472;2023-08-31T05:19:43;9.33;;;4.43;;
4810;SDS011;2419;51.276;6.472;2023-08-31T05:22:11;10.73;;;5.10;;
4810;SDS011;2419;51.276;6.472;2023-08-31T05:24:39;5.13;;;4.30;;
4810;SDS011;2419;51.276;6.472;2023-08-31T05:27:07;9.10;;;4.70;;
4810;SDS011;2419;51.276;6.472;2023-08-31T05:29:35;17.87;;;5.20;;
4810;SDS011;2419;51.276;6.472;2023-08-31T05:32:03;5.10;;;4.50;;
4810;SDS011;2419;51.276;6.472;2023-08-31T05:34:32;6.03;;;4.47;;
4810;SDS011;2419;51.276;6.472;2023-08-31T05:37:05;5.40;;;4.23;;
4810;SDS011;2419;51.276;6.472;2023-08-31T05:39:33;8.47;;;4.70;;
4810;SDS011;2419;51.276;6.472;2023-08-31T05:42:01;6.87;;;4.40;;
4810;SDS011;2419;51.276;6.472;2023-08-31T05:44:29;7.30;;;5.00;;
4810;SDS011;2419;51.276;6.472;2023-08-31T05:46:57;9.77;;;5.30;;
4810;SDS011;2419;51.276;6.472;2023-08-31T05:49:25;5.73;;;3.90;;
4810;SDS011;2419;51.276;6.472;2023-08-31T05:51:54;6.20;;;4.70;;
4810;SDS011;2419;51.276;6.472;2023-08-31T05:54:23;5.70;;;4.90;;
4810;SDS011;2419;51.276;6.472;2023-08-31T05:56:51;5.40;;;3.80;;
4810;SDS011;2419;51.276;6.472;2023-08-31T05:59:19;6.10;;;4.23;;
4810;SDS011;2419;51.276;6.472;2023-08-31T06:01:47;6.53;;;4.90;;
4810;SDS011;2419;51.276;6.472;2023-08-31T06:04:17;7.07;;;4.40;;
4810;SDS011;2419;51.276;6.472;2023-08-31T06:06:45;6.90;;;4.60;;
4810;SDS011;2419;51.276;6.472;2023-08-31T06:09:14;12.63;;;4.70;;
4810;SDS011;2419;51.276;6.472;2023-08-31T06:11:44;6.13;;;5.10;;
4810;SDS011;2419;51.276;6.472;2023-08-31T06:14:12;9.60;;;4.67;;
4810;SDS011;2419;51.276;6.472;2023-08-31T06:16:40;8.60;;;4.73;;
4810;SDS011;2419;51.276;6.472;2023-08-31T06:19:08;5.97;;;3.93;;
4810;SDS011;2419;51.276;6.472;2023-08-31T06:21:36;5.70;;;4.40;;
4810;SDS011;2419;51.276;6.472;2023-08-31T06:24:04;4.63;;;4.17;;
4810;SDS011;2419;51.276;6.472;2023-08-31T06:26:35;5.57;;;3.70;;
4810;SDS011;2419;51.276;6.472;2023-08-31T06:29:04;5.87;;;4.00;;
4810;SDS011;2419;51.276;6.472;2023-08-31T06:31:34;5.30;;;4.07;;
4810;SDS011;2419;51.276;6.472;2023-08-31T06:34:02;5.03;;;4.50;;
4810;SDS011;2419;51.276;6.472;2023-08-31T06:36:31;6.90;;;4.17;;
4810;SDS011;2419;51.276;6.472;2023-08-31T06:38:59;7.57;;;4.40;;
4810;SDS011;2419;51.276;6.472;2023-08-31T06:41:27;7.87;;;4.40;;
4810;SDS011;2419;51.276;6.472;2023-08-31T06:43:55;7.80;;;3.80;;
4810;SDS011;2419;51.276;6.472;2023-08-31T06:46:24;5.97;;;4.50;;
4810;SDS011;2419;51.276;6.472;2023-08-31T06:48:53;4.77;;;3.50;;
4810;SDS011;2419;51.276;6.472;2023-08-31T06:51:21;13.23;;;3.80;;
4810;SDS011;2419;51.276;6.472;2023-08-31T06:53:50;10.20;;;4.07;;
4810;SDS011;2419;51.276;6.472;2023-08-31T06:56:19;7.70;;;4.27;;
4810;SDS011;2419;51.276;6.472;2023-08-31T06:58:47;4.90;;;3.30;;
4810;SDS011;2419;51.276;6.472;2023-08-31T07:01:15;5.90;;;4.00;;
4810;SDS011;2419;51.276;6.472;2023-08-31T07:03:44;6.40;;;3.20;;
4810;SDS011;2419;51.276;6.472;2023-08-31T07:06:12;5.27;;;3.73;;
4810;SDS011;2419;51.276;6.472;2023-08-31T07:08:40;6.20;;;3.70;;
4810;SDS011;2419;51.276;6.472;2023-08-31T07:11:11;6.20;;;3.90;;
4810;SDS011;2419;51.276;6.472;2023-08-31T07:13:39;8.47;;;3.07;;
4810;SDS011;2419;51.276;6.472;2023-08-31T07:16:07;5.07;;;3.43;;
4810;SDS011;2419;51.276;6.472;2023-08-31T07:18:36;5.80;;;3.60;;
4810;SDS011;2419;51.276;6.472;2023-08-31T07:21:05;3.83;;;3.37;;
4810;SDS011;2419;51.276;6.472;2023-08-31T07:23:37;10.70;;;3.80;;
4810;SDS011;2419;51.276;6.472;2023-08-31T07:26:05;3.50;;;2.90;;
4810;SDS011;2419;51.276;6.472;2023-08-31T07:28:34;4.90;;;3.30;;
4810;SDS011;2419;51.276;6.472;2023-08-31T07:31:03;4.87;;;2.90;;
4810;SDS011;2419;51.276;6.472;2023-08-31T07:33:32;7.33;;;3.63;;
4810;SDS011;2419;51.276;6.472;2023-08-31T07:36:03;4.50;;;3.13;;
4810;SDS011;2419;51.276;6.472;2023-08-31T07:38:34;6.00;;;2.90;;
4810;SDS011;2419;51.276;6.472;2023-08-31T07:41:02;8.93;;;3.77;;
4810;SDS011;2419;51.276;6.472;2023-08-31T07:43:30;4.43;;;3.30;;
4810;SDS011;2419;51.276;6.472;2023-08-31T07:45:58;4.33;;;2.83;;
4810;SDS011;2419;51.276;6.472;2023-08-31T07:48:26;3.63;;;2.80;;
4810;SDS011;2419;51.276;6.472;2023-08-31T07:50:55;3.83;;;3.00;;
4810;SDS011;2419;51.276;6.472;2023-08-31T07:53:23;4.77;;;3.50;;
4810;SDS011;2419;51.276;6.472;2023-08-31T07:55:54;3.83;;;3.23;;
4810;SDS011;2419;51.276;6.472;2023-08-31T07:58:23;11.73;;;3.60;;
4810;SDS011;2419;51.276;6.472;2023-08-31T08:00:52;4.30;;;2.70;;
4810;SDS011;2419;51.276;6.472;2023-08-31T08:03:21;5.63;;;3.10;;
4810;SDS011;2419;51.276;6.472;2023-08-31T08:05:50;6.27;;;3.23;;
4810;SDS011;2419;51.276;6.472;2023-08-31T08:08:18;4.27;;;2.83;;
4810;SDS011;2419;51.276;6.472;2023-08-31T08:10:46;7.53;;;3.77;;
4810;SDS011;2419;51.276;6.472;2023-08-31T08:13:15;7.80;;;3.50;;
4810;SDS011;2419;51.276;6.472;2023-08-31T08:15:44;6.63;;;3.33;;
4810;SDS011;2419;51.276;6.472;2023-08-31T08:18:13;5.83;;;3.57;;
4810;SDS011;2419;51.276;6.472;2023-08-31T08:20:41;2.70;;;2.37;;
4810;SDS011;2419;51.276;6.472;2023-08-31T08:23:09;10.57;;;2.90;;
4810;SDS011;2419;51.276;6.472;2023-08-31T08:25:37;7.27;;;3.50;;
4810;SDS011;2419;51.276;6.472;2023-08-31T08:28:06;4.63;;;3.03;;
4810;SDS011;2419;51.276;6.472;2023-08-31T08:30:35;6.00;;;3.20;;
4810;SDS011;2419;51.276;6.472;2023-08-31T08:33:03;6.77;;;3.20;;
4810;SDS011;2419;51.276;6.472;2023-08-31T08:35:32;3.70;;;2.90;;
4810;SDS011;2419;51.276;6.472;2023-08-31T08:38:00;11.13;;;2.43;;
4810;SDS011;2419;51.276;6.472;2023-08-31T08:40:28;5.63;;;2.47;;
4810;SDS011;2419;51.276;6.472;2023-08-31T08:42:58;4.10;;;2.17;;
4810;SDS011;2419;51.276;6.472;2023-08-31T08:45:30;4.03;;;2.50;;
4810;SDS011;2419;51.276;6.472;2023-08-31T08:48:05;3.73;;;2.33;;
4810;SDS011;2419;51.276;6.472;2023-08-31T08:50:35;4.47;;;2.20;;
4810;SDS011;2419;51.276;6.472;2023-08-31T08:53:04;7.20;;;2.60;;
4810;SDS011;2419;51.276;6.472;2023-08-31T08:55:33;11.83;;;2.30;;
4810;SDS011;2419;51.276;6.472;2023-08-31T08:58:01;4.13;;;2.40;;
4810;SDS011;2419;51.276;6.472;2023-08-31T09:00:30;5.67;;;2.40;;
4810;SDS011;2419;51.276;6.472;2023-08-31T09:03:01;3.47;;;2.00;;
4810;SDS011;2419;51.276;6.472;2023-08-31T09:05:30;6.13;;;2.40;;
4810;SDS011;2419;51.276;6.472;2023-08-31T09:08:03;7.13;;;2.20;;
4810;SDS011;2419;51.276;6.472;2023-08-31T09:10:34;2.80;;;2.10;;
4810;SDS011;2419;51.276;6.472;2023-08-31T09:13:06;3.93;;;2.03;;
4810;SDS011;2419;51.276;6.472;2023-08-31T09:15:36;5.50;;;2.20;;
4810;SDS011;2419;51.276;6.472;2023-08-31T09:18:07;3.10;;;2.10;;
4810;SDS011;2419;51.276;6.472;2023-08-31T09:20:46;3.30;;;2.33;;
4810;SDS011;2419;51.276;6.472;2023-08-31T09:23:15;2.73;;;1.80;;
4810;SDS011;2419;51.276;6.472;2023-08-31T09:25:44;5.27;;;2.90;;
4810;SDS011;2419;51.276;6.472;2023-08-31T09:28:15;5.10;;;1.90;;
4810;SDS011;2419;51.276;6.472;2023-08-31T09:30:44;4.87;;;2.10;;
4810;SDS011;2419;51.276;6.472;2023-08-31T09:33:16;7.90;;;2.20;;
4810;SDS011;2419;51.276;6.472;2023-08-31T09:35:50;6.10;;;2.50;;
4810;SDS011;2419;51.276;6.472;2023-08-31T09:38:19;3.80;;;1.87;;
4810;SDS011;2419;51.276;6.472;2023-08-31T09:40:47;2.70;;;2.07;;
4810;SDS011;2419;51.276;6.472;2023-08-31T09:43:19;3.27;;;1.93;;
4810;SDS011;2419;51.276;6.472;2023-08-31T09:45:48;2.73;;;1.90;;
4810;SDS011;2419;51.276;6.472;2023-08-31T09:48:19;9.33;;;2.00;;
4810;SDS011;2419;51.276;6.472;2023-08-31T09:50:47;3.90;;;2.10;;
4810;SDS011;2419;51.276;6.472;2023-08-31T09:53:19;4.00;;;2.27;;
4810;SDS011;2419;51.276;6.472;2023-08-31T09:55:48;3.53;;;2.00;;
4810;SDS011;2419;51.276;6.472;2023-08-31T09:58:18;4.23;;;1.93;;
4810;SDS011;2419;51.276;6.472;2023-08-31T10:00:48;3.40;;;1.83;;
4810;SDS011;2419;51.276;6.472;2023-08-31T10:03:19;4.07;;;2.87;;
4810;SDS011;2419;51.276;6.472;2023-08-31T10:05:48;6.20;;;2.37;;
4810;SDS011;2419;51.276;6.472;2023-08-31T10:08:17;2.83;;;2.30;;
4810;SDS011;2419;51.276;6.472;2023-08-31T10:10:46;3.33;;;2.23;;
4810;SDS011;2419;51.276;6.472;2023-08-31T10:13:14;3.83;;;2.20;;
4810;SDS011;2419;51.276;6.472;2023-08-31T10:15:43;3.80;;;2.23;;
4810;SDS011;2419;51.276;6.472;2023-08-31T10:18:12;6.60;;;2.40;;
4810;SDS011;2419;51.276;6.472;2023-08-31T10:20:42;2.40;;;1.63;;
4810;SDS011;2419;51.276;6.472;2023-08-31T10:23:12;4.40;;;2.40;;
4810;SDS011;2419;51.276;6.472;2023-08-31T10:25:59;4.40;;;2.50;;
4810;SDS011;2419;51.276;6.472;2023-08-31T10:28:30;9.60;;;2.30;;
4810;SDS011;2419;51.276;6.472;2023-08-31T10:31:07;3.13;;;2.20;;
4810;SDS011;2419;51.276;6.472;2023-08-31T10:33:39;2.07;;;1.70;;
4810;SDS011;2419;51.276;6.472;2023-08-31T10:36:13;3.27;;;1.87;;
4810;SDS011;2419;51.276;6.472;2023-08-31T10:38:44;6.67;;;2.10;;
4810;SDS011;2419;51.276;6.472;2023-08-31T10:41:18;5.40;;;1.70;;
4810;SDS011;2419;51.276;6.472;2023-08-31T10:43:48;5.37;;;2.20;;
4810;SDS011;2419;51.276;6.472;2023-08-31T10:46:18;5.07;;;2.00;;
4810;SDS011;2419;51.276;6.472;2023-08-31T10:48:53;2.93;;;1.87;;
4810;SDS011;2419;51.276;6.472;2023-08-31T10:51:23;1.90;;;1.60;;
4810;SDS011;2419;51.276;6.472;2023-08-31T10:53:59;2.70;;;1.90;;
4810;SDS011;2419;51.276;6.472;2023-08-31T11:02:26;4.10;;;1.73;;
4810;SDS011;2419;51.276;6.472;2023-08-31T11:04:55;3.47;;;1.80;;
4810;SDS011;2419;51.276;6.472;2023-08-31T11:07:28;6.03;;;1.63;;
4810;SDS011;2419;51.276;6.472;2023-08-31T11:10:06;3.57;;;2.10;;
4810;SDS011;2419;51.276;6.472;2023-08-31T11:12:36;4.83;;;2.10;;
4810;SDS011;2419;51.276;6.472;2023-08-31T11:15:05;5.87;;;2.00;;
4810;SDS011;2419;51.276;6.472;2023-08-31T11:17:34;5.50;;;2.20;;
4810;SDS011;2419;51.276;6.472;2023-08-31T11:20:02;5.90;;;2.20;;
4810;SDS011;2419;51.276;6.472;2023-08-31T11:22:34;7.07;;;2.27;;
4810;SDS011;2419;51.276;6.472;2023-08-31T11:25:05;12.13;;;2.70;;
4810;SDS011;2419;51.276;6.472;2023-08-31T11:27:34;3.23;;;2.20;;
4810;SDS011;2419;51.276;6.472;2023-08-31T11:30:03;8.50;;;2.30;;
4810;SDS011;2419;51.276;6.472;2023-08-31T11:32:43;5.40;;;2.17;;
4810;SDS011;2419;51.276;6.472;2023-08-31T11:35:12;3.20;;;1.87;;
4810;SDS011;2419;51.276;6.472;2023-08-31T11:37:43;3.70;;;2.03;;
4810;SDS011;2419;51.276;6.472;2023-08-31T11:40:13;2.80;;;1.77;;
4810;SDS011;2419;51.276;6.472;2023-08-31T11:42:42;6.17;;;2.10;;
4810;SDS011;2419;51.276;6.472;2023-08-31T11:45:10;4.00;;;2.10;;
4810;SDS011;2419;51.276;6.472;2023-08-31T11:47:40;3.67;;;1.90;;
4810;SDS011;2419;51.276;6.472;2023-08-31T11:50:10;6.93;;;1.77;;
4810;SDS011;2419;51.276;6.472;2023-08-31T11:52:40;6.40;;;2.20;;
4810;SDS011;2419;51.276;6.472;2023-08-31T11:55:14;5.73;;;2.00;;
4810;SDS011;2419;51.276;6.472;2023-08-31T11:57:47;5.80;;;2.47;;
4810;SDS011;2419;51.276;6.472;2023-08-31T12:00:17;4.17;;;1.90;;
4810;SDS011;2419;51.276;6.472;2023-08-31T12:02:53;8.60;;;2.90;;
4810;SDS011;2419;51.276;6.472;2023-08-31T12:05:23;3.67;;;2.13;;
4810;SDS011;2419;51.276;6.472;2023-08-31T12:07:53;3.57;;;1.97;;
4810;SDS011;2419;51.276;6.472;2023-08-31T12:10:25;4.40;;;2.10;;
4810;SDS011;2419;51.276;6.472;2023-08-31T12:12:54;3.70;;;1.90;;
4810;SDS011;2419;51.276;6.472;2023-08-31T12:15:34;3.13;;;2.10;;
4810;SDS011;2419;51.276;6.472;2023-08-31T12:18:06;5.10;;;1.93;;
4810;SDS011;2419;51.276;6.472;2023-08-31T12:20:41;1.70;;;1.50;;
4810;SDS011;2419;51.276;6.472;2023-08-31T12:23:10;4.67;;;1.87;;
4810;SDS011;2419;51.276;6.472;2023-08-31T12:25:46;1.83;;;1.70;;
4810;SDS011;2419;51.276;6.472;2023-08-31T12:28:15;4.97;;;1.87;;
4810;SDS011;2419;51.276;6.472;2023-08-31T12:30:46;1.70;;;1.43;;
4810;SDS011;2419;51.276;6.472;2023-08-31T12:33:15;5.00;;;2.33;;
4810;SDS011;2419;51.276;6.472;2023-08-31T12:35:44;4.80;;;2.00;;
4810;SDS011;2419;51.276;6.472;2023-08-31T12:38:13;5.83;;;2.17;;
4810;SDS011;2419;51.276;6.472;2023-08-31T12:40:41;4.70;;;2.20;;
4810;SDS011;2419;51.276;6.472;2023-08-31T12:43:10;6.80;;;2.13;;
4810;SDS011;2419;51.276;6.472;2023-08-31T12:45:39;5.40;;;2.20;;
4810;SDS011;2419;51.276;6.472;2023-08-31T12:48:07;4.43;;;2.07;;
4810;SDS011;2419;51.276;6.472;2023-08-31T12:50:35;5.33;;;2.30;;
4810;SDS011;2419;51.276;6.472;2023-08-31T12:53:03;2.67;;;2.17;;
4810;SDS011;2419;51.276;6.472;2023-08-31T12:55:31;2.80;;;1.70;;
4810;SDS011;2419;51.276;6.472;2023-08-31T12:57:59;5.83;;;2.10;;
4810;SDS011;2419;51.276;6.472;2023-08-31T13:00:29;2.30;;;1.70;;
4810;SDS011;2419;51.276;6.472;2023-08-31T13:02:57;2.70;;;1.80;;
4810;SDS011;2419;51.276;6.472;2023-08-31T13:05:25;2.83;;;1.90;;
4810;SDS011;2419;51.276;6.472;2023-08-31T13:07:55;2.67;;;1.37;;
4810;SDS011;2419;51.276;6.472;2023-08-31T13:10:23;3.33;;;1.60;;
4810;SDS011;2419;51.276;6.472;2023-08-31T13:12:51;2.07;;;1.50;;
4810;SDS011;2419;51.276;6.472;2023-08-31T13:15:19;2.33;;;1.57;;
4810;SDS011;2419;51.276;6.472;2023-08-31T13:17:49;4.03;;;1.90;;
4810;SDS011;2419;51.276;6.472;2023-08-31T13:20:17;3.90;;;1.87;;
4810;SDS011;2419;51.276;6.472;2023-08-31T13:22:45;7.17;;;1.80;;
4810;SDS011;2419;51.276;6.472;2023-08-31T13:25:13;6.03;;;1.90;;
4810;SDS011;2419;51.276;6.472;2023-08-31T13:27:41;4.03;;;1.43;;
4810;SDS011;2419;51.276;6.472;2023-08-31T13:30:11;5.03;;;1.67;;
4810;SDS011;2419;51.276;6.472;2023-08-31T13:32:39;4.77;;;1.57;;
4810;SDS011;2419;51.276;6.472;2023-08-31T13:35:09;3.20;;;1.50;;
4810;SDS011;2419;51.276;6.472;2023-08-31T13:37:37;3.10;;;1.80;;
4810;SDS011;2419;51.276;6.472;2023-08-31T13:40:06;5.00;;;1.47;;
4810;SDS011;2419;51.276;6.472;2023-08-31T13:42:35;3.23;;;1.60;;
4810;SDS011;2419;51.276;6.472;2023-08-31T13:45:06;5.70;;;1.50;;
4810;SDS011;2419;51.276;6.472;2023-08-31T13:47:35;5.83;;;1.60;;
4810;SDS011;2419;51.276;6.472;2023-08-31T13:50:04;3.03;;;1.70;;
4810;SDS011;2419;51.276;6.472;2023-08-31T13:52:34;2.97;;;1.50;;
4810;SDS011;2419;51.276;6.472;2023-08-31T13:55:03;4.73;;;1.33;;
4810;SDS011;2419;51.276;6.472;2023-08-31T13:57:32;1.40;;;1.30;;
4810;SDS011;2419;51.276;6.472;2023-08-31T14:00:00;4.60;;;1.67;;
4810;SDS011;2419;51.276;6.472;2023-08-31T14:02:34;2.23;;;1.63;;
4810;SDS011;2419;51.276;6.472;2023-08-31T14:05:04;5.70;;;1.70;;
4810;SDS011;2419;51.276;6.472;2023-08-31T14:07:36;4.87;;;1.80;;
4810;SDS011;2419;51.276;6.472;2023-08-31T14:10:04;7.60;;;1.83;;
4810;SDS011;2419;51.276;6.472;2023-08-31T14:12:33;2.10;;;1.70;;
4810;SDS011;2419;51.276;6.472;2023-08-31T14:15:02;3.20;;;2.07;;
4810;SDS011;2419;51.276;6.472;2023-08-31T14:17:30;3.50;;;1.50;;
4810;SDS011;2419;51.276;6.472;2023-08-31T14:19:59;4.43;;;1.60;;
4810;SDS011;2419;51.276;6.472;2023-08-31T14:22:30;2.17;;;1.33;;
4810;SDS011;2419;51.276;6.472;2023-08-31T14:25:00;1.70;;;1.40;;
4810;SDS011;2419;51.276;6.472;2023-08-31T14:27:29;2.87;;;1.33;;
4810;SDS011;2419;51.276;6.472;2023-08-31T14:29:57;2.50;;;1.30;;
4810;SDS011;2419;51.276;6.472;2023-08-31T14:32:25;3.50;;;1.50;;
4810;SDS011;2419;51.276;6.472;2023-08-31T14:34:53;3.20;;;1.77;;
4810;SDS011;2419;51.276;6.472;2023-08-31T14:37:22;4.00;;;2.00;;
4810;SDS011;2419;51.276;6.472;2023-08-31T14:39:51;3.63;;;2.00;;
4810;SDS011;2419;51.276;6.472;2023-08-31T14:42:20;3.27;;;2.00;;
4810;SDS011;2419;51.276;6.472;2023-08-31T14:44:48;3.20;;;1.97;;
4810;SDS011;2419;51.276;6.472;2023-08-31T14:47:16;2.70;;;1.87;;
4810;SDS011;2419;51.276;6.472;2023-08-31T14:49:44;4.43;;;2.70;;
4810;SDS011;2419;51.276;6.472;2023-08-31T14:52:13;8.47;;;2.47;;
4810;SDS011;2419;51.276;6.472;2023-08-31T14:54:41;6.50;;;2.70;;
4810;SDS011;2419;51.276;6.472;2023-08-31T14:57:09;3.97;;;2.47;;
4810;SDS011;2419;51.276;6.472;2023-08-31T14:59:38;4.50;;;2.47;;
4810;SDS011;2419;51.276;6.472;2023-08-31T15:02:07;3.03;;;2.40;;
4810;SDS011;2419;51.276;6.472;2023-08-31T15:04:35;3.37;;;2.37;;
4810;SDS011;2419;51.276;6.472;2023-08-31T15:07:03;2.83;;;2.50;;
4810;SDS011;2419;51.276;6.472;2023-08-31T15:09:31;4.40;;;2.47;;
4810;SDS011;2419;51.276;6.472;2023-08-31T15:12:00;6.63;;;2.63;;
4810;SDS011;2419;51.276;6.472;2023-08-31T15:14:27;5.17;;;3.00;;
4810;SDS011;2419;51.276;6.472;2023-08-31T15:16:57;6.10;;;2.23;;
4810;SDS011;2419;51.276;6.472;2023-08-31T15:19:27;5.33;;;2.53;;
4810;SDS011;2419;51.276;6.472;2023-08-31T15:21:55;6.83;;;2.27;;
4810;SDS011;2419;51.276;6.472;2023-08-31T15:24:23;4.13;;;2.10;;
4810;SDS011;2419;51.276;6.472;2023-08-31T15:26:51;2.70;;;2.23;;
4810;SDS011;2419;51.276;6.472;2023-08-31T15:29:19;6.17;;;2.40;;
4810;SDS011;2419;51.276;6.472;2023-08-31T15:31:48;6.17;;;2.70;;
4810;SDS011;2419;51.276;6.472;2023-08-31T15:34:17;3.47;;;2.53;;
4810;SDS011;2419;51.276;6.472;2023-08-31T15:36:45;3.73;;;2.57;;
4810;SDS011;2419;51.276;6.472;2023-08-31T15:39:13;4.57;;;2.87;;
4810;SDS011;2419;51.276;6.472;2023-08-31T15:41:41;10.03;;;2.97;;
4810;SDS011;2419;51.276;6.472;2023-08-31T15:44:09;7.03;;;3.77;;
4810;SDS011;2419;51.276;6.472;2023-08-31T15:46:37;6.70;;;3.10;;
4810;SDS011;2419;51.276;6.472;2023-08-31T15:49:06;5.53;;;3.20;;